createdAt,value
2022-09-22T00:01:53.450Z,101875.81
2022-09-22T00:04:20.958Z,101875.06
2022-09-22T00:06:51.335Z,101873.41
2022-09-22T00:09:21.419Z,101879.47
2022-09-22T00:11:50.712Z,101885.56
2022-09-22T00:14:21.058Z,101878.34
2022-09-22T00:16:50.298Z,101880.69
2022-09-22T00:19:22.771Z,101878.03
2022-09-22T00:21:52.134Z,101876.53
2022-09-22T00:24:22.511Z,101873.25
2022-09-22T00:26:51.039Z,101877.72
2022-09-22T00:29:18.875Z,101861.13
2022-09-22T00:31:46.588Z,101862.06
2022-09-22T00:34:16.496Z,101868.16
2022-09-22T00:36:44.015Z,101871.56
2022-09-22T00:39:13.833Z,101869.75
2022-09-22T00:41:44.752Z,101875.78
2022-09-22T00:44:38.790Z,101868.81
2022-09-22T00:47:13.450Z,101866.16
2022-09-22T00:49:46.549Z,101863.63
2022-09-22T00:52:17.218Z,101857.75
2022-09-22T00:54:46.252Z,101853.56
2022-09-22T00:57:17.155Z,101851.09
2022-09-22T00:59:45.126Z,101850.81
2022-09-22T01:02:12.810Z,101855.94
2022-09-22T01:04:41.272Z,101851.38
2022-09-22T01:07:09.415Z,101846.88
2022-09-22T01:09:36.982Z,101853.97
2022-09-22T01:12:06.476Z,101844.69
2022-09-22T01:14:49.674Z,101838.63
2022-09-22T01:17:24.295Z,101840.34
2022-09-22T01:20:17.336Z,101835.97
2022-09-22T01:23:05.541Z,101831.81
2022-09-22T01:25:50.402Z,101834.53
2022-09-22T01:28:31.396Z,101825.88
2022-09-22T01:31:04.668Z,101828.25
2022-09-22T01:33:35.147Z,101821.47
2022-09-22T01:36:11.963Z,101823.13
2022-09-22T01:38:49.229Z,101818.75
2022-09-22T01:41:21.102Z,101826.47
2022-09-22T01:43:52.283Z,101819.69
2022-09-22T01:46:25.049Z,101818.06
2022-09-22T01:48:53.649Z,101826.75
2022-09-22T01:51:25.510Z,101815.50
2022-09-22T01:53:55.483Z,101808.72
2022-09-22T01:56:24.255Z,101814.56
2022-09-22T01:58:55.419Z,101814.44
2022-09-22T02:01:27.089Z,101803.16
2022-09-22T02:03:58.568Z,101810.13
2022-09-22T02:06:29.324Z,101806.81
2022-09-22T02:08:59.783Z,101805.81
2022-09-22T02:11:27.502Z,101808.34
2022-09-22T02:13:55.215Z,101810.03
2022-09-22T02:16:26.083Z,101813.66
2022-09-22T02:18:55.374Z,101800.81
2022-09-22T02:21:25.866Z,101801.72
2022-09-22T02:23:53.379Z,101795.72
2022-09-22T02:26:23.821Z,101798.44
2022-09-22T02:28:53.943Z,101791.59
2022-09-22T02:31:22.616Z,101790.75
2022-09-22T02:33:52.974Z,101788.25
2022-09-22T02:36:35.686Z,101790.88
2022-09-22T02:39:07.776Z,101783.09
2022-09-22T02:41:41.743Z,101792.38
2022-09-22T02:44:14.662Z,101791.16
2022-09-22T02:46:44.722Z,101788.63
2022-09-22T02:49:17.200Z,101791.34
2022-09-22T02:51:46.516Z,101786.25
2022-09-22T02:54:14.906Z,101785.25
2022-09-22T02:56:42.426Z,101786.22
2022-09-22T02:59:10.328Z,101785.41
2022-09-22T03:01:38.437Z,101788.78
2022-09-22T03:04:06.520Z,101780.16
2022-09-22T03:06:36.657Z,101779.41
2022-09-22T03:09:04.490Z,101776.84
2022-09-22T03:11:32.033Z,101774.19
2022-09-22T03:13:59.623Z,101775.03
2022-09-22T03:16:27.143Z,101768.28
2022-09-22T03:18:54.735Z,101766.59
2022-09-22T03:21:22.298Z,101762.22
2022-09-22T03:23:51.131Z,101763.16
2022-09-22T03:26:18.680Z,101756.22
2022-09-22T03:28:46.181Z,101766.66
2022-09-22T03:31:13.778Z,101758.00
2022-09-22T03:33:41.647Z,101756.28
2022-09-22T03:36:09.338Z,101758.03
2022-09-22T03:38:37.003Z,101757.03
2022-09-22T03:41:06.179Z,101756.22
2022-09-22T03:43:33.699Z,101757.00
2022-09-22T03:46:02.019Z,101754.25
2022-09-22T03:48:31.019Z,101752.28
2022-09-22T03:50:58.700Z,101752.03
2022-09-22T03:53:26.267Z,101747.06
2022-09-22T03:55:53.802Z,101744.53
2022-09-22T03:58:22.712Z,101749.78
2022-09-22T04:00:50.391Z,101743.94
2022-09-22T04:03:18.440Z,101742.88
2022-09-22T04:05:50.631Z,101744.09
2022-09-22T04:08:18.245Z,101741.84
2022-09-22T04:10:46.695Z,101742.66
2022-09-22T04:13:14.769Z,101741.13
2022-09-22T04:15:43.822Z,101733.72
2022-09-22T04:18:12.784Z,101731.41
2022-09-22T04:20:43.370Z,101726.31
2022-09-22T04:23:11.279Z,101738.53
2022-09-22T04:25:39.120Z,101731.44
2022-09-22T04:28:07.335Z,101736.84
2022-09-22T04:30:35.556Z,101735.41
2022-09-22T04:33:04.870Z,101730.28
2022-09-22T04:35:32.399Z,101725.94
2022-09-22T04:38:00.566Z,101736.81
2022-09-22T04:40:28.437Z,101739.38
2022-09-22T04:42:55.992Z,101735.69
2022-09-22T04:45:23.554Z,101729.72
2022-09-22T04:47:52.026Z,101736.31
2022-09-22T04:50:22.570Z,101737.91
2022-09-22T04:52:51.255Z,101727.31
2022-09-22T04:55:19.315Z,101721.03
2022-09-22T04:57:49.298Z,101715.00
2022-09-22T05:00:17.715Z,101717.84
2022-09-22T05:05:29.880Z,101722.47
2022-09-22T05:07:57.410Z,101725.34
2022-09-22T05:10:25.679Z,101730.81
2022-09-22T05:12:54.372Z,101726.66
2022-09-22T05:15:22.666Z,101729.66
2022-09-22T05:17:51.237Z,101732.56
2022-09-22T05:20:19.275Z,101734.91
2022-09-22T05:22:48.565Z,101733.47
2022-09-22T05:25:17.750Z,101742.50
2022-09-22T05:27:45.758Z,101737.44
2022-09-22T05:30:13.999Z,101738.75
2022-09-22T05:32:43.799Z,101743.84
2022-09-22T05:35:11.652Z,101746.88
2022-09-22T05:37:39.245Z,101748.69
2022-09-22T05:40:09.226Z,101745.97
2022-09-22T05:42:40.690Z,101748.66
2022-09-22T05:45:09.567Z,101749.66
2022-09-22T05:47:37.095Z,101751.38
2022-09-22T05:50:05.386Z,101750.56
2022-09-22T05:52:32.924Z,101753.25
2022-09-22T05:55:00.432Z,101760.22
2022-09-22T05:57:31.704Z,101762.84
2022-09-22T05:59:59.645Z,101763.66
2022-09-22T06:02:27.384Z,101761.03
2022-09-22T06:04:55.388Z,101760.97
2022-09-22T06:07:24.068Z,101766.94
2022-09-22T06:09:52.036Z,101768.53
2022-09-22T06:12:19.996Z,101770.03
2022-09-22T06:14:48.923Z,101768.81
2022-09-22T06:17:16.690Z,101774.56
2022-09-22T06:19:50.083Z,101772.56
2022-09-22T06:22:18.550Z,101773.22
2022-09-22T06:24:46.264Z,101764.41
2022-09-22T06:27:14.042Z,101759.75
2022-09-22T06:29:42.367Z,101760.47
2022-09-22T06:32:11.506Z,101761.00
2022-09-22T06:34:39.321Z,101759.00
2022-09-22T06:37:09.604Z,101758.72
2022-09-22T06:39:37.646Z,101755.88
2022-09-22T06:42:05.852Z,101757.25
2022-09-22T06:44:33.576Z,101759.47
2022-09-22T06:47:05.218Z,101751.44
2022-09-22T06:49:34.163Z,101756.28
2022-09-22T06:52:03.762Z,101755.91
2022-09-22T06:54:32.454Z,101761.59
2022-09-22T06:57:00.029Z,101763.88
2022-09-22T06:59:28.937Z,101758.31
2022-09-22T07:01:56.663Z,101766.69
2022-09-22T07:04:24.264Z,101754.31
2022-09-22T07:06:53.152Z,101753.03
2022-09-22T07:09:21.156Z,101750.97
2022-09-22T07:11:49.387Z,101754.03
2022-09-22T07:14:20.987Z,101754.50
2022-09-22T07:16:48.625Z,101750.59
2022-09-22T07:19:16.391Z,101744.94
2022-09-22T07:21:45.356Z,101744.63
2022-09-22T07:24:14.876Z,101733.66
2022-09-22T07:26:44.021Z,101735.63
2022-09-22T07:29:13.331Z,101740.34
2022-09-22T07:31:41.756Z,101733.53
2022-09-22T07:34:09.494Z,101728.72
2022-09-22T07:36:37.889Z,101726.22
2022-09-22T07:39:08.031Z,101717.94
2022-09-22T07:41:41.752Z,101727.09
2022-09-22T07:44:27.875Z,101713.41
2022-09-22T07:46:55.730Z,101721.66
2022-09-22T07:49:23.404Z,101721.19
2022-09-22T07:51:54.664Z,101724.06
2022-09-22T07:54:22.608Z,101709.50
2022-09-22T07:56:56.003Z,101718.81
2022-09-22T07:59:23.528Z,101707.16
2022-09-22T08:01:52.263Z,101710.59
2022-09-22T08:04:22.815Z,101705.38
2022-09-22T08:06:55.345Z,101711.94
2022-09-22T08:09:23.728Z,101704.84
2022-09-22T08:11:53.131Z,101705.44
2022-09-22T08:14:23.422Z,101704.41
2022-09-22T08:16:51.851Z,101708.97
2022-09-22T08:19:21.059Z,101703.44
2022-09-22T08:21:50.985Z,101693.44
2022-09-22T08:24:21.595Z,101695.06
2022-09-22T08:26:50.315Z,101704.47
2022-09-22T08:29:19.289Z,101700.78
2022-09-22T08:31:49.255Z,101696.78
2022-09-22T08:34:18.215Z,101694.91
2022-09-22T08:36:48.437Z,101693.16
2022-09-22T08:39:17.173Z,101685.00
2022-09-22T08:41:56.680Z,101688.56
2022-09-22T08:44:28.136Z,101696.28
2022-09-22T08:46:57.545Z,101704.00
2022-09-22T08:49:45.379Z,101694.59
2022-09-22T08:52:17.819Z,101704.81
2022-09-22T08:54:46.108Z,101697.41
2022-09-22T08:57:39.080Z,101699.09
2022-09-22T09:00:13.108Z,101701.59
2022-09-22T09:02:42.416Z,101691.63
2022-09-22T09:05:51.307Z,101698.38
2022-09-22T09:09:04.010Z,101701.66
2022-09-22T09:11:45.364Z,101689.75
2022-09-22T09:14:24.871Z,101694.34
2022-09-22T09:16:57.839Z,101695.66
2022-09-22T09:19:30.537Z,101695.09
2022-09-22T09:22:03.469Z,101698.22
2022-09-22T09:27:24.390Z,101684.50
2022-09-22T09:29:58.949Z,101683.09
2022-09-22T09:32:34.457Z,101680.59
2022-09-22T09:35:02.848Z,101688.84
2022-09-22T09:37:31.307Z,101682.59
2022-09-22T09:40:02.923Z,101686.34
2022-09-22T09:42:34.784Z,101681.66
2022-09-22T09:45:03.462Z,101681.97
2022-09-22T09:47:47.919Z,101678.41
2022-09-22T09:50:16.426Z,101677.06
2022-09-22T09:52:44.006Z,101675.44
2022-09-22T09:55:26.584Z,101679.63
2022-09-22T09:58:09.040Z,101673.03
2022-09-22T10:00:53.716Z,101679.81
2022-09-22T10:03:28.039Z,101673.38
2022-09-22T10:06:02.786Z,101666.47
2022-09-22T10:08:36.384Z,101668.84
2022-09-22T10:11:04.488Z,101663.31
2022-09-22T10:13:34.493Z,101667.16
2022-09-22T10:16:05.640Z,101666.13
2022-09-22T10:18:40.513Z,101664.38
2022-09-22T10:21:15.327Z,101659.91
2022-09-22T10:23:44.779Z,101665.59
2022-09-22T10:26:18.317Z,101663.03
2022-09-22T10:28:50.714Z,101659.94
2022-09-22T10:31:22.178Z,101658.88
2022-09-22T10:33:58.585Z,101661.94
2022-09-22T10:36:27.000Z,101648.63
2022-09-22T10:38:58.917Z,101646.09
2022-09-22T10:41:34.000Z,101649.78
2022-09-22T10:44:27.339Z,101643.28
2022-09-22T10:47:21.554Z,101638.81
2022-09-22T10:50:07.025Z,101646.44
2022-09-22T10:52:41.296Z,101637.22
2022-09-22T10:55:20.612Z,101643.91
2022-09-22T10:58:02.031Z,101639.19
2022-09-22T11:00:29.928Z,101634.41
2022-09-22T11:03:20.146Z,101623.84
2022-09-22T11:06:17.910Z,101622.13
2022-09-22T11:09:06.701Z,101631.50
2022-09-22T11:11:55.923Z,101620.56
2022-09-22T11:14:35.114Z,101606.13
2022-09-22T11:17:17.018Z,101623.41
2022-09-22T11:20:05.248Z,101612.75
2022-09-22T11:22:54.319Z,101610.00
2022-09-22T11:25:32.162Z,101602.47
2022-09-22T11:28:10.783Z,101606.56
2022-09-22T11:30:41.796Z,101610.47
2022-09-22T11:33:40.053Z,101602.00
2022-09-22T11:36:19.587Z,101601.25
2022-09-22T11:39:12.468Z,101606.63
2022-09-22T11:41:42.260Z,101598.72
2022-09-22T11:44:37.732Z,101585.72
2022-09-22T11:47:19.251Z,101587.84
2022-09-22T11:50:05.885Z,101584.25
2022-09-22T11:52:44.307Z,101578.44
2022-09-22T11:55:23.443Z,101574.81
2022-09-22T11:57:54.280Z,101574.84
2022-09-22T12:00:22.463Z,101562.63
2022-09-22T12:03:01.780Z,101567.38
2022-09-22T12:05:35.221Z,101566.53
2022-09-22T12:08:06.808Z,101561.63
2022-09-22T12:10:37.909Z,101574.66
2022-09-22T12:13:08.860Z,101565.66
2022-09-22T12:15:39.104Z,101556.72
2022-09-22T12:18:10.811Z,101548.44
2022-09-22T12:20:46.698Z,101561.50
2022-09-22T12:23:18.959Z,101544.69
2022-09-22T12:25:50.937Z,101543.50
2022-09-22T12:28:20.684Z,101534.56
2022-09-22T12:31:00.152Z,101537.66
2022-09-22T12:33:28.487Z,101536.69
2022-09-22T12:35:56.839Z,101527.97
2022-09-22T12:38:25.113Z,101520.44
2022-09-22T12:40:57.600Z,101511.88
2022-09-22T12:43:26.239Z,101516.53
2022-09-22T12:45:55.021Z,101513.81
2022-09-22T12:48:24.729Z,101498.09
2022-09-22T12:50:53.208Z,101507.88
2022-09-22T12:53:26.360Z,101504.84
2022-09-22T12:55:56.523Z,101492.44
2022-09-22T12:58:43.731Z,101491.59
2022-09-22T13:01:34.994Z,101501.53
2022-09-22T13:04:20.561Z,101491.06
2022-09-22T13:06:56.843Z,101494.50
2022-09-22T13:09:26.892Z,101484.63
2022-09-22T13:15:17.804Z,101486.66
2022-09-22T13:17:46.627Z,101480.19
2022-09-22T13:20:16.367Z,101485.47
2022-09-22T13:22:44.451Z,101480.56
2022-09-22T13:25:17.584Z,101475.47
2022-09-22T13:27:45.873Z,101477.69
2022-09-22T13:30:16.003Z,101471.56
2022-09-22T13:32:49.591Z,101475.28
2022-09-22T13:35:25.455Z,101467.56
2022-09-22T13:37:56.044Z,101472.13
2022-09-22T13:40:27.923Z,101459.72
2022-09-22T13:42:57.607Z,101464.72
2022-09-22T13:45:27.571Z,101446.06
2022-09-22T13:47:57.851Z,101450.78
2022-09-22T13:50:25.884Z,101446.72
2022-09-22T13:52:53.909Z,101443.31
2022-09-22T13:55:26.203Z,101442.22
2022-09-22T13:57:57.036Z,101433.22
2022-09-22T14:00:31.358Z,101425.63
2022-09-22T14:03:00.054Z,101438.84
2022-09-22T14:05:30.030Z,101435.53
2022-09-22T14:08:12.004Z,101436.22
2022-09-22T14:10:42.226Z,101429.19
2022-09-22T14:13:37.086Z,101432.22
2022-09-22T14:16:14.983Z,101434.94
2022-09-22T14:18:43.938Z,101423.59
2022-09-22T14:21:12.047Z,101423.78
2022-09-22T14:23:44.805Z,101421.25
2022-09-22T14:26:29.513Z,101412.72
2022-09-22T14:28:59.063Z,101407.84
2022-09-22T14:31:30.027Z,101399.25
2022-09-22T14:33:57.675Z,101403.47
2022-09-22T14:36:26.681Z,101412.31
2022-09-22T14:39:08.036Z,101403.56
2022-09-22T14:41:38.497Z,101396.44
2022-09-22T14:44:28.039Z,101395.28
2022-09-22T14:46:57.350Z,101402.94
2022-09-22T14:49:43.213Z,101395.50
2022-09-22T14:52:19.868Z,101389.22
2022-09-22T14:54:47.380Z,101388.38
2022-09-22T14:57:17.362Z,101382.06
2022-09-22T15:00:06.730Z,101384.97
2022-09-22T15:02:41.410Z,101380.81
2022-09-22T15:05:11.669Z,101381.22
2022-09-22T15:07:40.263Z,101367.94
2022-09-22T15:10:18.707Z,101372.41
2022-09-22T15:12:49.591Z,101373.59
2022-09-22T15:15:20.114Z,101367.81
2022-09-22T15:18:07.486Z,101370.47
2022-09-22T15:20:42.593Z,101367.47
2022-09-22T15:23:15.731Z,101370.91
2022-09-22T15:25:43.766Z,101361.41
2022-09-22T15:28:15.583Z,101362.88
2022-09-22T15:30:44.290Z,101351.03
2022-09-22T15:33:15.528Z,101352.56
2022-09-22T15:35:44.657Z,101349.19
2022-09-22T15:38:17.814Z,101355.69
2022-09-22T15:40:46.632Z,101351.75
2022-09-22T15:43:20.563Z,101349.16
2022-09-22T15:45:49.411Z,101343.00
2022-09-22T15:48:23.611Z,101343.25
2022-09-22T15:50:51.706Z,101344.00
2022-09-22T15:53:19.236Z,101342.84
2022-09-22T15:55:47.846Z,101343.25
2022-09-22T15:58:16.758Z,101339.91
2022-09-22T16:00:44.268Z,101340.50
2022-09-22T16:03:16.353Z,101337.81
2022-09-22T16:05:45.735Z,101333.19
2022-09-22T16:08:16.082Z,101332.75
2022-09-22T16:10:44.168Z,101331.34
2022-09-22T16:13:12.773Z,101333.75
2022-09-22T16:15:40.485Z,101330.53
2022-09-22T16:18:08.321Z,101335.84
2022-09-22T16:20:37.614Z,101330.94
2022-09-22T16:23:07.494Z,101324.97
2022-09-22T16:25:35.023Z,101326.69
2022-09-22T16:28:02.975Z,101326.28
2022-09-22T16:30:30.487Z,101327.34
2022-09-22T16:32:57.963Z,101326.47
2022-09-22T16:35:25.577Z,101326.03
2022-09-22T16:37:57.102Z,101322.69
2022-09-22T16:40:28.430Z,101324.19
2022-09-22T16:42:55.999Z,101329.13
2022-09-22T16:45:38.554Z,101327.63
2022-09-22T16:48:07.275Z,101324.69
2022-09-22T16:50:37.616Z,101324.88
2022-09-22T16:53:07.430Z,101321.53
2022-09-22T16:55:37.568Z,101325.41
2022-09-22T16:58:07.307Z,101332.69
2022-09-22T17:00:34.981Z,101334.94
2022-09-22T17:03:02.489Z,101325.41
2022-09-22T17:05:32.747Z,101323.91
2022-09-22T17:08:05.935Z,101328.06
2022-09-22T17:10:35.792Z,101324.31
2022-09-22T17:13:05.154Z,101327.38
2022-09-22T17:15:35.715Z,101324.97
2022-09-22T17:18:04.397Z,101326.59
2022-09-22T17:20:31.994Z,101334.97
2022-09-22T17:22:59.653Z,101334.97
2022-09-22T17:25:29.181Z,101339.25
2022-09-22T17:27:57.586Z,101338.09
2022-09-22T17:30:26.415Z,101337.13
2022-09-22T17:32:54.136Z,101334.06
2022-09-22T17:35:21.651Z,101334.97
2022-09-22T17:37:51.726Z,101334.13
2022-09-22T17:40:19.519Z,101336.06
2022-09-22T17:42:47.584Z,101331.50
2022-09-22T17:45:15.446Z,101334.56
2022-09-22T17:48:01.967Z,101335.06
2022-09-22T17:50:47.315Z,101340.25
2022-09-22T17:53:32.446Z,101342.06
2022-09-22T17:56:04.943Z,101341.41
2022-09-22T17:58:32.773Z,101340.44
2022-09-22T18:01:00.548Z,101340.84
2022-09-22T18:03:29.372Z,101341.97
2022-09-22T18:05:57.299Z,101341.03
2022-09-22T18:08:25.129Z,101342.16
2022-09-22T18:10:52.625Z,101341.84
2022-09-22T18:13:20.126Z,101338.88
2022-09-22T18:15:47.657Z,101343.50
2022-09-22T18:18:15.180Z,101337.56
2022-09-22T18:20:43.999Z,101340.59
2022-09-22T18:23:12.327Z,101342.19
2022-09-22T18:25:41.287Z,101344.03
2022-09-22T18:28:08.770Z,101342.69
2022-09-22T18:30:39.884Z,101345.13
2022-09-22T18:33:07.399Z,101344.94
2022-09-22T18:35:34.906Z,101341.47
2022-09-22T18:38:03.878Z,101344.66
2022-09-22T18:40:32.331Z,101349.56
2022-09-22T18:42:59.831Z,101341.31
2022-09-22T18:45:28.023Z,101339.41
2022-09-22T18:47:59.431Z,101341.97
2022-09-22T18:50:28.019Z,101342.28
2022-09-22T18:52:56.689Z,101344.66
2022-09-22T18:55:25.922Z,101343.41
2022-09-22T18:57:53.982Z,101341.19
2022-09-22T19:00:22.087Z,101339.22
2022-09-22T19:02:50.260Z,101340.69
2022-09-22T19:05:17.958Z,101338.41
2022-09-22T19:07:47.581Z,101340.78
2022-09-22T19:10:20.415Z,101336.00
2022-09-22T19:12:49.485Z,101345.38
2022-09-22T19:15:18.838Z,101340.53
2022-09-22T19:17:49.155Z,101343.03
2022-09-22T19:20:18.195Z,101333.09
2022-09-22T19:22:46.831Z,101341.44
2022-09-22T19:25:14.876Z,101334.69
2022-09-22T19:27:42.392Z,101330.13
2022-09-22T19:30:12.259Z,101330.34
2022-09-22T19:32:40.687Z,101331.31
2022-09-22T19:35:09.456Z,101333.94
2022-09-22T19:37:37.199Z,101337.63
2022-09-22T19:40:05.649Z,101332.00
2022-09-22T19:42:37.998Z,101328.53
2022-09-22T19:45:07.937Z,101334.13
2022-09-22T19:47:36.794Z,101335.25
2022-09-22T19:50:07.940Z,101332.50
2022-09-22T19:52:35.925Z,101340.13
2022-09-22T19:55:03.437Z,101339.59
2022-09-22T19:57:31.812Z,101334.13
2022-09-22T19:59:59.302Z,101327.25
2022-09-22T20:02:26.819Z,101327.38
2022-09-22T20:04:55.807Z,101318.47
2022-09-22T20:07:27.619Z,101319.00
2022-09-22T20:09:56.149Z,101315.47
2022-09-22T20:12:24.062Z,101320.63
2022-09-22T20:14:51.678Z,101323.56
2022-09-22T20:17:19.203Z,101319.66
2022-09-22T20:19:46.690Z,101317.41
2022-09-22T20:22:25.076Z,101317.69
2022-09-22T20:24:55.483Z,101318.81
2022-09-22T20:27:23.984Z,101319.13
2022-09-22T20:29:56.272Z,101327.81
2022-09-22T20:32:25.424Z,101320.31
2022-09-22T20:34:54.004Z,101315.53
2022-09-22T20:37:23.267Z,101317.59
2022-09-22T20:39:50.799Z,101324.56
2022-09-22T20:42:18.363Z,101326.06
2022-09-22T20:44:46.820Z,101316.28
2022-09-22T20:47:15.574Z,101318.34
2022-09-22T20:49:44.288Z,101313.88
2022-09-22T20:52:15.214Z,101317.91
2022-09-22T20:54:44.765Z,101307.75
2022-09-22T20:57:12.270Z,101306.59
2022-09-22T20:59:40.204Z,101310.78
2022-09-22T21:02:08.076Z,101313.25
2022-09-22T21:04:35.578Z,101309.72
2022-09-22T21:07:03.071Z,101302.00
2022-09-22T21:09:48.123Z,101305.53
2022-09-22T21:12:16.963Z,101295.28
2022-09-22T21:14:45.070Z,101293.78
2022-09-22T21:17:13.600Z,101291.56
2022-09-22T21:19:41.194Z,101286.56
2022-09-22T21:22:08.757Z,101281.38
2022-09-22T21:24:36.247Z,101287.22
2022-09-22T21:27:03.756Z,101285.00
2022-09-22T21:29:32.611Z,101288.56
2022-09-22T21:32:00.464Z,101286.13
2022-09-22T21:34:27.959Z,101289.00
2022-09-22T21:36:55.444Z,101285.22
2022-09-22T21:39:23.137Z,101286.63
2022-09-22T21:41:50.761Z,101286.53
2022-09-22T21:44:18.259Z,101286.63
2022-09-22T21:46:47.607Z,101276.56
2022-09-22T21:49:15.206Z,101273.06
2022-09-22T21:51:44.266Z,101278.16
2022-09-22T21:54:13.750Z,101271.16
2022-09-22T21:56:41.272Z,101275.38
2022-09-22T21:59:09.395Z,101264.63
2022-09-22T22:01:39.185Z,101270.28
2022-09-22T22:04:08.841Z,101263.31
2022-09-22T22:06:40.621Z,101257.31
2022-09-22T22:09:11.811Z,101257.41
2022-09-22T22:11:40.531Z,101254.16
2022-09-22T22:14:09.553Z,101248.56
2022-09-22T22:16:38.829Z,101255.13
2022-09-22T22:19:08.327Z,101250.88
2022-09-22T22:21:36.124Z,101243.91
2022-09-22T22:24:22.736Z,101243.78
2022-09-22T22:26:52.374Z,101242.16
2022-09-22T22:29:20.895Z,101247.69
2022-09-22T22:31:49.643Z,101244.13
2022-09-22T22:34:19.899Z,101236.53
2022-09-22T22:36:48.558Z,101237.19
2022-09-22T22:39:16.370Z,101233.84
2022-09-22T22:41:44.415Z,101233.25
2022-09-22T22:44:12.830Z,101231.72
2022-09-22T22:46:40.411Z,101232.06
2022-09-22T22:49:08.247Z,101232.31
2022-09-22T22:51:37.423Z,101239.06
2022-09-22T22:54:05.551Z,101230.31
2022-09-22T22:56:33.595Z,101233.53
2022-09-22T22:59:01.229Z,101229.81
2022-09-22T23:01:30.818Z,101232.22
2022-09-22T23:04:00.385Z,101221.72
2022-09-22T23:06:29.633Z,101212.69
2022-09-22T23:08:58.554Z,101206.03
2022-09-22T23:11:27.877Z,101216.91
2022-09-22T23:13:59.378Z,101220.16
2022-09-22T23:16:28.264Z,101209.34
2022-09-22T23:18:58.092Z,101206.03
2022-09-22T23:21:26.255Z,101212.13
2022-09-22T23:23:55.417Z,101198.00
2022-09-22T23:26:24.882Z,101192.97
2022-09-22T23:28:52.940Z,101191.53
2022-09-22T23:31:22.362Z,101193.09
2022-09-22T23:33:52.006Z,101183.75
2022-09-22T23:36:22.392Z,101181.50
2022-09-22T23:38:54.087Z,101178.63
2022-09-22T23:41:21.843Z,101177.66
2022-09-22T23:43:50.944Z,101180.81
2022-09-22T23:46:18.863Z,101174.50
2022-09-22T23:48:47.293Z,101170.97
2022-09-22T23:51:15.100Z,101163.25
2022-09-22T23:53:42.755Z,101160.94
2022-09-22T23:56:10.460Z,101162.13
2022-09-22T23:58:38.869Z,101157.72
